createdAt,value
2022-09-06T06:03:14.339Z,5.65
2022-09-06T06:06:17.877Z,5.45
2022-09-06T06:09:20.583Z,5.97
2022-09-06T06:12:23.333Z,5.45
2022-09-06T06:15:25.919Z,5.97
2022-09-06T06:18:29.899Z,5.97
2022-09-06T06:21:33.874Z,6.00
2022-09-06T06:24:36.686Z,5.82
2022-09-06T06:27:39.215Z,5.25
2022-09-06T06:30:42.094Z,5.32
2022-09-06T06:33:44.884Z,5.40
2022-09-06T06:36:48.126Z,5.12
2022-09-06T06:39:50.701Z,5.00
2022-09-06T06:42:57.806Z,4.60
2022-09-06T06:46:00.344Z,5.07
2022-09-06T06:49:03.705Z,4.60
2022-09-06T06:52:07.049Z,5.40
2022-09-06T06:55:10.217Z,5.05
2022-09-06T06:58:12.760Z,5.50
2022-09-06T07:01:16.424Z,5.32
2022-09-06T09:18:50.515Z,5.35
2022-09-06T10:03:34.631Z,4.85
2022-09-06T10:10:33.542Z,4.72
2022-09-06T10:13:36.566Z,4.43
2022-09-06T10:51:23.566Z,4.62
2022-09-06T10:54:26.828Z,4.82
2022-09-06T11:01:53.477Z,4.40
2022-09-06T11:08:46.517Z,4.07
2022-09-06T11:12:16.782Z,3.95
2022-09-06T11:15:21.991Z,4.15
2022-09-06T11:18:53.675Z,4.22
2022-09-06T11:22:11.424Z,4.32
2022-09-06T11:25:33.164Z,4.40
2022-09-06T11:32:43.421Z,4.43
2022-09-06T11:35:49.224Z,5.93
2022-09-06T11:42:53.679Z,4.35
2022-09-06T11:46:02.836Z,4.10
2022-09-06T11:49:06.699Z,4.25
2022-09-06T11:53:05.941Z,4.00
2022-09-06T11:56:33.137Z,4.62
2022-09-06T11:59:48.067Z,4.40
2022-09-06T12:02:52.282Z,4.30
2022-09-06T12:06:19.142Z,4.78
2022-09-06T12:09:30.293Z,4.90
2022-09-06T12:12:42.663Z,4.57
2022-09-06T12:15:46.463Z,4.70
2022-09-06T12:18:51.945Z,3.62
2022-09-06T12:22:26.622Z,3.40
2022-09-06T12:25:35.231Z,3.53
2022-09-06T12:28:46.419Z,2.97
2022-09-06T12:31:57.158Z,3.20
2022-09-06T12:38:37.223Z,3.28
2022-09-06T12:42:19.378Z,2.80
2022-09-06T12:45:42.228Z,3.58
2022-09-06T12:56:21.654Z,3.10
2022-09-06T12:59:27.130Z,3.10
2022-09-06T13:02:52.443Z,2.90
2022-09-06T13:06:00.482Z,2.70
2022-09-06T13:09:04.846Z,3.10
2022-09-06T13:12:17.714Z,3.05
2022-09-06T13:19:40.958Z,2.53
2022-09-06T13:26:47.979Z,2.75
2022-09-06T13:30:06.684Z,2.95
2022-09-06T13:33:26.195Z,2.62
2022-09-06T13:36:36.518Z,2.90
2022-09-06T13:39:52.404Z,3.20
2022-09-06T13:43:16.393Z,3.00
2022-09-06T13:46:20.852Z,3.05
2022-09-06T13:49:24.760Z,2.90
2022-09-06T13:52:27.326Z,3.17
2022-09-06T13:55:33.203Z,2.83
2022-09-06T14:02:09.961Z,3.10
2022-09-06T14:05:13.112Z,2.80
2022-09-06T14:08:15.929Z,3.00
2022-09-06T14:11:18.909Z,3.40
2022-09-06T14:32:46.976Z,3.60
2022-09-06T14:35:49.911Z,3.62
2022-09-06T14:38:53.697Z,3.45
2022-09-06T14:41:56.528Z,4.15
2022-09-06T14:44:59.091Z,3.22
2022-09-06T14:48:02.486Z,3.53
2022-09-06T14:51:21.773Z,3.95
2022-09-06T14:54:28.654Z,3.92
2022-09-06T14:57:32.147Z,3.92
2022-09-06T15:00:34.979Z,4.03
2022-09-06T15:03:37.901Z,4.00
2022-09-06T15:06:44.912Z,3.80
2022-09-06T15:09:47.588Z,4.03
2022-09-06T15:12:50.377Z,3.67
2022-09-06T15:15:56.106Z,3.45
2022-09-06T15:18:58.975Z,4.35
2022-09-06T15:22:01.998Z,4.07
2022-09-06T15:25:05.116Z,4.00
2022-09-06T15:28:07.695Z,3.80
